sensor_id;sensor_type;location;lat;lon;timestamp;P1;durP1;ratioP1;P2;durP2;ratioP2
3941;SDS011;1985;48.592;8.850;2023-06-10T00:02:09;12.95;;;4.28;;
3941;SDS011;1985;48.592;8.850;2023-06-10T00:04:35;11.83;;;4.30;;
3941;SDS011;1985;48.592;8.850;2023-06-10T00:07:04;12.90;;;4.50;;
3941;SDS011;1985;48.592;8.850;2023-06-10T00:09:36;12.15;;;4.80;;
3941;SDS011;1985;48.592;8.850;2023-06-10T00:12:06;13.38;;;3.92;;
3941;SDS011;1985;48.592;8.850;2023-06-10T00:14:33;13.30;;;5.10;;
3941;SDS011;1985;48.592;8.850;2023-06-10T00:17:00;12.77;;;4.70;;
3941;SDS011;1985;48.592;8.850;2023-06-10T00:19:25;12.85;;;4.80;;
3941;SDS011;1985;48.592;8.850;2023-06-10T00:21:54;12.18;;;4.70;;
3941;SDS011;1985;48.592;8.850;2023-06-10T00:24:21;14.75;;;4.80;;
3941;SDS011;1985;48.592;8.850;2023-06-10T00:26:47;13.23;;;4.97;;
3941;SDS011;1985;48.592;8.850;2023-06-10T00:29:12;12.30;;;4.60;;
3941;SDS011;1985;48.592;8.850;2023-06-10T00:31:39;12.75;;;4.78;;
3941;SDS011;1985;48.592;8.850;2023-06-10T00:34:05;13.10;;;5.30;;
3941;SDS011;1985;48.592;8.850;2023-06-10T00:36:32;12.73;;;5.18;;
3941;SDS011;1985;48.592;8.850;2023-06-10T00:38:57;13.70;;;4.60;;
3941;SDS011;1985;48.592;8.850;2023-06-10T00:41:23;12.00;;;4.80;;
3941;SDS011;1985;48.592;8.850;2023-06-10T00:43:51;13.50;;;5.07;;
3941;SDS011;1985;48.592;8.850;2023-06-10T00:46:16;11.82;;;4.63;;
3941;SDS011;1985;48.592;8.850;2023-06-10T00:48:43;13.73;;;4.95;;
3941;SDS011;1985;48.592;8.850;2023-06-10T00:51:10;15.35;;;4.75;;
3941;SDS011;1985;48.592;8.850;2023-06-10T00:53:37;16.03;;;5.43;;
3941;SDS011;1985;48.592;8.850;2023-06-10T00:56:04;12.45;;;4.90;;
3941;SDS011;1985;48.592;8.850;2023-06-10T00:58:30;12.97;;;5.07;;
3941;SDS011;1985;48.592;8.850;2023-06-10T01:00:56;12.68;;;4.82;;
3941;SDS011;1985;48.592;8.850;2023-06-10T01:03:22;14.30;;;4.97;;
3941;SDS011;1985;48.592;8.850;2023-06-10T01:05:50;15.37;;;5.60;;
3941;SDS011;1985;48.592;8.850;2023-06-10T01:08:31;13.90;;;4.90;;
3941;SDS011;1985;48.592;8.850;2023-06-10T01:11:04;13.20;;;5.22;;
3941;SDS011;1985;48.592;8.850;2023-06-10T01:13:33;13.88;;;5.10;;
3941;SDS011;1985;48.592;8.850;2023-06-10T01:16:04;13.40;;;4.85;;
3941;SDS011;1985;48.592;8.850;2023-06-10T01:18:30;16.73;;;5.27;;
3941;SDS011;1985;48.592;8.850;2023-06-10T01:20:56;14.82;;;4.50;;
3941;SDS011;1985;48.592;8.850;2023-06-10T01:23:22;13.77;;;5.27;;
3941;SDS011;1985;48.592;8.850;2023-06-10T01:26:02;13.30;;;4.80;;
3941;SDS011;1985;48.592;8.850;2023-06-10T01:28:38;11.73;;;4.60;;
3941;SDS011;1985;48.592;8.850;2023-06-10T01:31:18;13.23;;;5.22;;
3941;SDS011;1985;48.592;8.850;2023-06-10T01:34:01;12.63;;;5.07;;
3941;SDS011;1985;48.592;8.850;2023-06-10T01:36:30;14.25;;;5.50;;
3941;SDS011;1985;48.592;8.850;2023-06-10T01:38:57;13.27;;;5.33;;
3941;SDS011;1985;48.592;8.850;2023-06-10T01:41:24;12.70;;;5.43;;
3941;SDS011;1985;48.592;8.850;2023-06-10T01:43:50;13.30;;;5.45;;
3941;SDS011;1985;48.592;8.850;2023-06-10T01:46:16;13.00;;;5.30;;
3941;SDS011;1985;48.592;8.850;2023-06-10T01:48:46;13.40;;;5.00;;
3941;SDS011;1985;48.592;8.850;2023-06-10T01:51:12;13.10;;;5.32;;
3941;SDS011;1985;48.592;8.850;2023-06-10T01:53:37;14.83;;;5.67;;
3941;SDS011;1985;48.592;8.850;2023-06-10T01:56:03;11.67;;;5.10;;
3941;SDS011;1985;48.592;8.850;2023-06-10T01:58:28;13.18;;;5.55;;
3941;SDS011;1985;48.592;8.850;2023-06-10T02:00:54;14.43;;;5.57;;
3941;SDS011;1985;48.592;8.850;2023-06-10T02:03:20;13.70;;;5.60;;
3941;SDS011;1985;48.592;8.850;2023-06-10T02:05:45;15.13;;;5.53;;
3941;SDS011;1985;48.592;8.850;2023-06-10T02:08:11;13.03;;;5.07;;
3941;SDS011;1985;48.592;8.850;2023-06-10T02:10:36;12.85;;;5.07;;
3941;SDS011;1985;48.592;8.850;2023-06-10T02:13:02;13.90;;;5.60;;
3941;SDS011;1985;48.592;8.850;2023-06-10T02:15:28;13.98;;;5.88;;
3941;SDS011;1985;48.592;8.850;2023-06-10T02:17:53;13.50;;;5.47;;
3941;SDS011;1985;48.592;8.850;2023-06-10T02:20:19;13.43;;;5.80;;
3941;SDS011;1985;48.592;8.850;2023-06-10T02:22:45;12.97;;;5.43;;
3941;SDS011;1985;48.592;8.850;2023-06-10T02:25:11;13.10;;;5.63;;
3941;SDS011;1985;48.592;8.850;2023-06-10T02:27:37;13.15;;;5.30;;
3941;SDS011;1985;48.592;8.850;2023-06-10T02:30:03;12.53;;;4.90;;
3941;SDS011;1985;48.592;8.850;2023-06-10T02:32:29;13.85;;;5.28;;
3941;SDS011;1985;48.592;8.850;2023-06-10T02:34:54;13.40;;;5.40;;
3941;SDS011;1985;48.592;8.850;2023-06-10T02:37:20;14.47;;;5.50;;
3941;SDS011;1985;48.592;8.850;2023-06-10T02:39:46;15.05;;;5.68;;
3941;SDS011;1985;48.592;8.850;2023-06-10T02:42:11;13.90;;;5.28;;
3941;SDS011;1985;48.592;8.850;2023-06-10T02:44:37;13.90;;;5.63;;
3941;SDS011;1985;48.592;8.850;2023-06-10T02:47:03;13.60;;;5.53;;
3941;SDS011;1985;48.592;8.850;2023-06-10T02:49:29;13.63;;;5.40;;
3941;SDS011;1985;48.592;8.850;2023-06-10T02:51:55;13.73;;;5.40;;
3941;SDS011;1985;48.592;8.850;2023-06-10T02:54:22;13.45;;;5.65;;
3941;SDS011;1985;48.592;8.850;2023-06-10T02:56:48;17.53;;;5.90;;
3941;SDS011;1985;48.592;8.850;2023-06-10T02:59:17;13.45;;;5.82;;
3941;SDS011;1985;48.592;8.850;2023-06-10T03:01:42;14.10;;;5.20;;
3941;SDS011;1985;48.592;8.850;2023-06-10T03:04:08;13.10;;;5.40;;
3941;SDS011;1985;48.592;8.850;2023-06-10T03:06:34;13.93;;;5.32;;
3941;SDS011;1985;48.592;8.850;2023-06-10T03:09:00;14.00;;;5.10;;
3941;SDS011;1985;48.592;8.850;2023-06-10T03:11:26;13.35;;;5.70;;
3941;SDS011;1985;48.592;8.850;2023-06-10T03:13:52;13.10;;;5.10;;
3941;SDS011;1985;48.592;8.850;2023-06-10T03:16:19;13.15;;;5.50;;
3941;SDS011;1985;48.592;8.850;2023-06-10T03:18:44;13.43;;;5.60;;
3941;SDS011;1985;48.592;8.850;2023-06-10T03:21:10;14.13;;;5.83;;
3941;SDS011;1985;48.592;8.850;2023-06-10T03:23:36;13.02;;;5.28;;
3941;SDS011;1985;48.592;8.850;2023-06-10T03:26:02;14.40;;;5.70;;
3941;SDS011;1985;48.592;8.850;2023-06-10T03:28:29;16.90;;;5.70;;
3941;SDS011;1985;48.592;8.850;2023-06-10T03:30:55;15.20;;;5.80;;
3941;SDS011;1985;48.592;8.850;2023-06-10T03:33:21;13.40;;;6.13;;
3941;SDS011;1985;48.592;8.850;2023-06-10T03:35:47;13.95;;;5.57;;
3941;SDS011;1985;48.592;8.850;2023-06-10T03:38:13;14.90;;;6.20;;
3941;SDS011;1985;48.592;8.850;2023-06-10T03:40:38;14.23;;;6.10;;
3941;SDS011;1985;48.592;8.850;2023-06-10T03:43:04;14.63;;;5.03;;
3941;SDS011;1985;48.592;8.850;2023-06-10T03:45:30;14.02;;;5.70;;
3941;SDS011;1985;48.592;8.850;2023-06-10T03:47:57;15.73;;;6.57;;
3941;SDS011;1985;48.592;8.850;2023-06-10T03:50:23;12.95;;;5.45;;
3941;SDS011;1985;48.592;8.850;2023-06-10T03:52:49;15.32;;;6.10;;
3941;SDS011;1985;48.592;8.850;2023-06-10T03:55:15;13.48;;;5.40;;
3941;SDS011;1985;48.592;8.850;2023-06-10T03:57:42;15.65;;;6.13;;
3941;SDS011;1985;48.592;8.850;2023-06-10T04:00:08;12.77;;;5.60;;
3941;SDS011;1985;48.592;8.850;2023-06-10T04:02:37;14.52;;;5.68;;
3941;SDS011;1985;48.592;8.850;2023-06-10T04:05:10;13.23;;;5.43;;
3941;SDS011;1985;48.592;8.850;2023-06-10T04:07:36;12.95;;;5.40;;
3941;SDS011;1985;48.592;8.850;2023-06-10T04:10:04;13.35;;;5.93;;
3941;SDS011;1985;48.592;8.850;2023-06-10T04:12:30;14.85;;;6.20;;
3941;SDS011;1985;48.592;8.850;2023-06-10T04:14:55;12.37;;;5.20;;
3941;SDS011;1985;48.592;8.850;2023-06-10T04:17:21;13.20;;;5.95;;
3941;SDS011;1985;48.592;8.850;2023-06-10T04:19:47;12.75;;;5.05;;
3941;SDS011;1985;48.592;8.850;2023-06-10T04:22:12;12.80;;;5.38;;
3941;SDS011;1985;48.592;8.850;2023-06-10T04:24:38;13.47;;;5.77;;
3941;SDS011;1985;48.592;8.850;2023-06-10T04:27:04;15.80;;;5.67;;
3941;SDS011;1985;48.592;8.850;2023-06-10T04:29:30;13.63;;;5.68;;
3941;SDS011;1985;48.592;8.850;2023-06-10T04:31:55;12.40;;;5.00;;
3941;SDS011;1985;48.592;8.850;2023-06-10T04:34:21;12.50;;;5.27;;
3941;SDS011;1985;48.592;8.850;2023-06-10T04:36:47;12.50;;;5.20;;
3941;SDS011;1985;48.592;8.850;2023-06-10T04:39:12;13.07;;;5.40;;
3941;SDS011;1985;48.592;8.850;2023-06-10T04:41:38;14.00;;;5.30;;
3941;SDS011;1985;48.592;8.850;2023-06-10T04:44:04;13.10;;;5.13;;
3941;SDS011;1985;48.592;8.850;2023-06-10T04:46:32;11.65;;;4.80;;
3941;SDS011;1985;48.592;8.850;2023-06-10T04:48:58;12.73;;;5.30;;
3941;SDS011;1985;48.592;8.850;2023-06-10T04:51:23;13.43;;;5.00;;
3941;SDS011;1985;48.592;8.850;2023-06-10T04:53:49;13.30;;;4.95;;
3941;SDS011;1985;48.592;8.850;2023-06-10T04:56:14;13.85;;;5.40;;
3941;SDS011;1985;48.592;8.850;2023-06-10T04:58:41;13.95;;;5.30;;
3941;SDS011;1985;48.592;8.850;2023-06-10T05:01:06;15.13;;;5.93;;
3941;SDS011;1985;48.592;8.850;2023-06-10T05:03:32;13.57;;;5.50;;
3941;SDS011;1985;48.592;8.850;2023-06-10T05:05:58;12.60;;;4.80;;
3941;SDS011;1985;48.592;8.850;2023-06-10T05:08:23;12.10;;;4.83;;
3941;SDS011;1985;48.592;8.850;2023-06-10T05:10:49;13.30;;;5.00;;
3941;SDS011;1985;48.592;8.850;2023-06-10T05:13:16;13.15;;;5.05;;
3941;SDS011;1985;48.592;8.850;2023-06-10T05:15:42;12.45;;;4.78;;
3941;SDS011;1985;48.592;8.850;2023-06-10T05:18:09;12.98;;;5.18;;
3941;SDS011;1985;48.592;8.850;2023-06-10T05:20:37;13.82;;;5.40;;
3941;SDS011;1985;48.592;8.850;2023-06-10T05:23:03;12.53;;;4.90;;
3941;SDS011;1985;48.592;8.850;2023-06-10T05:25:32;14.27;;;4.97;;
3941;SDS011;1985;48.592;8.850;2023-06-10T05:27:58;11.77;;;4.40;;
3941;SDS011;1985;48.592;8.850;2023-06-10T05:30:24;12.57;;;4.50;;
3941;SDS011;1985;48.592;8.850;2023-06-10T05:32:50;11.57;;;4.50;;
3941;SDS011;1985;48.592;8.850;2023-06-10T05:35:16;11.80;;;4.40;;
3941;SDS011;1985;48.592;8.850;2023-06-10T05:37:42;12.27;;;4.38;;
3941;SDS011;1985;48.592;8.850;2023-06-10T05:40:08;12.50;;;4.75;;
3941;SDS011;1985;48.592;8.850;2023-06-10T05:42:35;11.43;;;4.55;;
3941;SDS011;1985;48.592;8.850;2023-06-10T05:45:00;14.43;;;5.10;;
3941;SDS011;1985;48.592;8.850;2023-06-10T05:47:27;12.30;;;4.45;;
3941;SDS011;1985;48.592;8.850;2023-06-10T05:49:53;11.25;;;4.20;;
3941;SDS011;1985;48.592;8.850;2023-06-10T05:52:18;12.43;;;4.47;;
3941;SDS011;1985;48.592;8.850;2023-06-10T05:54:44;14.50;;;5.40;;
3941;SDS011;1985;48.592;8.850;2023-06-10T05:57:10;11.53;;;4.30;;
3941;SDS011;1985;48.592;8.850;2023-06-10T05:59:35;12.50;;;4.70;;
3941;SDS011;1985;48.592;8.850;2023-06-10T06:02:01;14.30;;;4.80;;
3941;SDS011;1985;48.592;8.850;2023-06-10T06:04:27;14.27;;;4.80;;
3941;SDS011;1985;48.592;8.850;2023-06-10T06:06:52;12.90;;;4.53;;
3941;SDS011;1985;48.592;8.850;2023-06-10T06:09:18;11.03;;;4.00;;
3941;SDS011;1985;48.592;8.850;2023-06-10T06:11:43;13.37;;;4.90;;
3941;SDS011;1985;48.592;8.850;2023-06-10T06:14:09;12.30;;;4.40;;
3941;SDS011;1985;48.592;8.850;2023-06-10T06:16:35;11.98;;;4.80;;
3941;SDS011;1985;48.592;8.850;2023-06-10T06:19:00;18.48;;;5.00;;
3941;SDS011;1985;48.592;8.850;2023-06-10T06:21:26;12.20;;;4.93;;
3941;SDS011;1985;48.592;8.850;2023-06-10T06:23:52;11.00;;;4.00;;
3941;SDS011;1985;48.592;8.850;2023-06-10T06:26:17;14.90;;;4.80;;
3941;SDS011;1985;48.592;8.850;2023-06-10T06:28:43;12.55;;;4.88;;
3941;SDS011;1985;48.592;8.850;2023-06-10T06:31:09;12.52;;;4.40;;
3941;SDS011;1985;48.592;8.850;2023-06-10T06:33:34;12.93;;;5.00;;
3941;SDS011;1985;48.592;8.850;2023-06-10T06:36:00;12.07;;;4.90;;
3941;SDS011;1985;48.592;8.850;2023-06-10T06:38:26;12.37;;;4.97;;
3941;SDS011;1985;48.592;8.850;2023-06-10T06:40:51;12.50;;;4.75;;
3941;SDS011;1985;48.592;8.850;2023-06-10T06:43:17;11.45;;;4.63;;
3941;SDS011;1985;48.592;8.850;2023-06-10T06:45:43;14.90;;;5.30;;
3941;SDS011;1985;48.592;8.850;2023-06-10T06:48:10;15.87;;;5.00;;
3941;SDS011;1985;48.592;8.850;2023-06-10T06:50:36;12.88;;;4.90;;
3941;SDS011;1985;48.592;8.850;2023-06-10T06:53:02;13.30;;;4.80;;
3941;SDS011;1985;48.592;8.850;2023-06-10T06:55:28;12.48;;;4.60;;
3941;SDS011;1985;48.592;8.850;2023-06-10T06:57:54;11.90;;;4.68;;
3941;SDS011;1985;48.592;8.850;2023-06-10T07:00:20;12.35;;;5.00;;
3941;SDS011;1985;48.592;8.850;2023-06-10T07:02:46;11.95;;;4.95;;
3941;SDS011;1985;48.592;8.850;2023-06-10T07:05:12;12.35;;;4.68;;
3941;SDS011;1985;48.592;8.850;2023-06-10T07:07:38;13.20;;;4.93;;
3941;SDS011;1985;48.592;8.850;2023-06-10T07:10:04;13.67;;;5.10;;
3941;SDS011;1985;48.592;8.850;2023-06-10T07:12:30;12.97;;;5.10;;
3941;SDS011;1985;48.592;8.850;2023-06-10T07:14:55;12.30;;;4.90;;
3941;SDS011;1985;48.592;8.850;2023-06-10T07:17:21;11.40;;;4.63;;
3941;SDS011;1985;48.592;8.850;2023-06-10T07:19:47;11.35;;;4.60;;
3941;SDS011;1985;48.592;8.850;2023-06-10T07:22:13;12.43;;;5.07;;
3941;SDS011;1985;48.592;8.850;2023-06-10T07:24:39;13.80;;;5.40;;
3941;SDS011;1985;48.592;8.850;2023-06-10T07:27:06;13.60;;;4.85;;
3941;SDS011;1985;48.592;8.850;2023-06-10T07:29:32;12.07;;;5.10;;
3941;SDS011;1985;48.592;8.850;2023-06-10T07:31:57;11.68;;;4.30;;
3941;SDS011;1985;48.592;8.850;2023-06-10T07:34:23;11.80;;;4.60;;
3941;SDS011;1985;48.592;8.850;2023-06-10T07:36:49;12.83;;;5.50;;
3941;SDS011;1985;48.592;8.850;2023-06-10T07:39:15;12.50;;;5.25;;
3941;SDS011;1985;48.592;8.850;2023-06-10T07:41:40;12.38;;;4.68;;
3941;SDS011;1985;48.592;8.850;2023-06-10T07:44:06;11.93;;;4.60;;
3941;SDS011;1985;48.592;8.850;2023-06-10T07:46:31;12.63;;;5.20;;
3941;SDS011;1985;48.592;8.850;2023-06-10T07:48:57;11.88;;;4.63;;
3941;SDS011;1985;48.592;8.850;2023-06-10T07:51:23;11.13;;;3.97;;
3941;SDS011;1985;48.592;8.850;2023-06-10T07:53:48;12.60;;;4.93;;
3941;SDS011;1985;48.592;8.850;2023-06-10T07:56:14;13.07;;;4.70;;
3941;SDS011;1985;48.592;8.850;2023-06-10T07:58:40;11.60;;;4.70;;
3941;SDS011;1985;48.592;8.850;2023-06-10T08:01:06;12.15;;;4.30;;
3941;SDS011;1985;48.592;8.850;2023-06-10T08:03:32;11.77;;;4.63;;
3941;SDS011;1985;48.592;8.850;2023-06-10T08:05:58;10.73;;;4.10;;
3941;SDS011;1985;48.592;8.850;2023-06-10T08:08:23;11.93;;;4.43;;
3941;SDS011;1985;48.592;8.850;2023-06-10T08:10:51;12.73;;;4.25;;
3941;SDS011;1985;48.592;8.850;2023-06-10T08:13:20;13.02;;;4.43;;
3941;SDS011;1985;48.592;8.850;2023-06-10T08:15:58;11.20;;;4.20;;
3941;SDS011;1985;48.592;8.850;2023-06-10T08:18:24;10.90;;;3.50;;
3941;SDS011;1985;48.592;8.850;2023-06-10T08:20:50;11.00;;;4.05;;
3941;SDS011;1985;48.592;8.850;2023-06-10T08:23:15;11.90;;;4.10;;
3941;SDS011;1985;48.592;8.850;2023-06-10T08:25:41;11.20;;;3.60;;
3941;SDS011;1985;48.592;8.850;2023-06-10T08:28:06;11.27;;;4.30;;
3941;SDS011;1985;48.592;8.850;2023-06-10T08:30:32;12.10;;;4.00;;
3941;SDS011;1985;48.592;8.850;2023-06-10T08:32:58;11.97;;;4.00;;
3941;SDS011;1985;48.592;8.850;2023-06-10T08:35:24;11.13;;;4.05;;
3941;SDS011;1985;48.592;8.850;2023-06-10T08:37:50;12.30;;;4.60;;
3941;SDS011;1985;48.592;8.850;2023-06-10T08:40:15;11.43;;;4.33;;
3941;SDS011;1985;48.592;8.850;2023-06-10T08:45:34;10.20;;;3.80;;
3941;SDS011;1985;48.592;8.850;2023-06-10T08:48:04;13.20;;;4.20;;
3941;SDS011;1985;48.592;8.850;2023-06-10T08:50:34;11.55;;;4.20;;
3941;SDS011;1985;48.592;8.850;2023-06-10T08:53:02;10.45;;;3.90;;
3941;SDS011;1985;48.592;8.850;2023-06-10T08:58:01;10.40;;;3.53;;
3941;SDS011;1985;48.592;8.850;2023-06-10T09:00:28;11.23;;;3.63;;
3941;SDS011;1985;48.592;8.850;2023-06-10T09:02:55;11.00;;;4.03;;
3941;SDS011;1985;48.592;8.850;2023-06-10T09:05:22;10.07;;;3.58;;
3941;SDS011;1985;48.592;8.850;2023-06-10T09:07:48;10.43;;;3.70;;
3941;SDS011;1985;48.592;8.850;2023-06-10T09:10:14;11.77;;;3.70;;
3941;SDS011;1985;48.592;8.850;2023-06-10T09:12:40;10.93;;;3.65;;
3941;SDS011;1985;48.592;8.850;2023-06-10T09:15:07;10.75;;;3.63;;
3941;SDS011;1985;48.592;8.850;2023-06-10T09:17:33;11.70;;;3.75;;
3941;SDS011;1985;48.592;8.850;2023-06-10T09:20:01;10.82;;;3.88;;
3941;SDS011;1985;48.592;8.850;2023-06-10T09:22:27;10.73;;;3.40;;
3941;SDS011;1985;48.592;8.850;2023-06-10T09:25:03;10.57;;;3.72;;
3941;SDS011;1985;48.592;8.850;2023-06-10T09:27:30;11.07;;;3.97;;
3941;SDS011;1985;48.592;8.850;2023-06-10T09:29:59;11.35;;;3.75;;
3941;SDS011;1985;48.592;8.850;2023-06-10T09:32:25;11.00;;;4.00;;
3941;SDS011;1985;48.592;8.850;2023-06-10T09:34:52;12.68;;;3.80;;
3941;SDS011;1985;48.592;8.850;2023-06-10T09:37:21;12.43;;;4.10;;
3941;SDS011;1985;48.592;8.850;2023-06-10T09:40:04;11.00;;;3.80;;
3941;SDS011;1985;48.592;8.850;2023-06-10T09:42:32;12.00;;;3.90;;
3941;SDS011;1985;48.592;8.850;2023-06-10T09:45:05;11.00;;;3.78;;
3941;SDS011;1985;48.592;8.850;2023-06-10T09:47:33;14.30;;;3.90;;
3941;SDS011;1985;48.592;8.850;2023-06-10T09:49:59;9.82;;;3.40;;
3941;SDS011;1985;48.592;8.850;2023-06-10T09:52:26;11.07;;;4.30;;
3941;SDS011;1985;48.592;8.850;2023-06-10T09:55:01;10.52;;;3.80;;
3941;SDS011;1985;48.592;8.850;2023-06-10T09:57:30;11.63;;;3.60;;
3941;SDS011;1985;48.592;8.850;2023-06-10T10:00:04;11.40;;;3.80;;
3941;SDS011;1985;48.592;8.850;2023-06-10T10:02:32;10.40;;;3.70;;
3941;SDS011;1985;48.592;8.850;2023-06-10T10:05:08;11.00;;;4.10;;
3941;SDS011;1985;48.592;8.850;2023-06-10T10:07:34;10.70;;;3.50;;
3941;SDS011;1985;48.592;8.850;2023-06-10T10:10:00;10.13;;;3.42;;
3941;SDS011;1985;48.592;8.850;2023-06-10T10:12:26;9.70;;;3.40;;
3941;SDS011;1985;48.592;8.850;2023-06-10T10:14:52;9.60;;;3.08;;
3941;SDS011;1985;48.592;8.850;2023-06-10T10:17:20;11.02;;;3.85;;
3941;SDS011;1985;48.592;8.850;2023-06-10T10:19:50;10.32;;;3.30;;
3941;SDS011;1985;48.592;8.850;2023-06-10T10:22:19;9.55;;;3.28;;
3941;SDS011;1985;48.592;8.850;2023-06-10T10:24:53;11.52;;;3.38;;
3941;SDS011;1985;48.592;8.850;2023-06-10T10:27:57;10.57;;;3.80;;
3941;SDS011;1985;48.592;8.850;2023-06-10T10:30:22;10.10;;;3.50;;
3941;SDS011;1985;48.592;8.850;2023-06-10T10:32:55;10.60;;;3.30;;
3941;SDS011;1985;48.592;8.850;2023-06-10T10:35:24;10.25;;;3.05;;
3941;SDS011;1985;48.592;8.850;2023-06-10T10:37:54;10.63;;;3.40;;
3941;SDS011;1985;48.592;8.850;2023-06-10T10:40:20;9.98;;;3.30;;
3941;SDS011;1985;48.592;8.850;2023-06-10T10:42:48;11.37;;;2.80;;
3941;SDS011;1985;48.592;8.850;2023-06-10T10:45:14;9.55;;;2.88;;
3941;SDS011;1985;48.592;8.850;2023-06-10T10:47:40;10.02;;;3.35;;
3941;SDS011;1985;48.592;8.850;2023-06-10T10:50:17;9.23;;;2.92;;
3941;SDS011;1985;48.592;8.850;2023-06-10T10:52:54;8.57;;;2.50;;
3941;SDS011;1985;48.592;8.850;2023-06-10T10:55:22;9.98;;;3.15;;
3941;SDS011;1985;48.592;8.850;2023-06-10T10:57:59;9.68;;;2.80;;
3941;SDS011;1985;48.592;8.850;2023-06-10T11:03:05;8.75;;;2.70;;
3941;SDS011;1985;48.592;8.850;2023-06-10T11:08:07;9.90;;;2.60;;
3941;SDS011;1985;48.592;8.850;2023-06-10T11:10:36;9.77;;;3.00;;
3941;SDS011;1985;48.592;8.850;2023-06-10T11:13:06;9.70;;;3.05;;
3941;SDS011;1985;48.592;8.850;2023-06-10T11:15:44;10.40;;;2.80;;
3941;SDS011;1985;48.592;8.850;2023-06-10T11:23:25;9.60;;;3.30;;
3941;SDS011;1985;48.592;8.850;2023-06-10T11:28:41;15.10;;;3.93;;
3941;SDS011;1985;48.592;8.850;2023-06-10T11:32:11;10.93;;;3.50;;
3941;SDS011;1985;48.592;8.850;2023-06-10T11:34:15;9.45;;;2.70;;
3941;SDS011;1985;48.592;8.850;2023-06-10T11:36:49;10.03;;;3.40;;
3941;SDS011;1985;48.592;8.850;2023-06-10T11:39:15;9.90;;;3.38;;
3941;SDS011;1985;48.592;8.850;2023-06-10T11:41:42;10.50;;;3.30;;
3941;SDS011;1985;48.592;8.850;2023-06-10T11:44:09;10.82;;;3.70;;
3941;SDS011;1985;48.592;8.850;2023-06-10T11:46:36;10.63;;;3.67;;
3941;SDS011;1985;48.592;8.850;2023-06-10T11:49:03;11.88;;;3.63;;
3941;SDS011;1985;48.592;8.850;2023-06-10T11:51:39;10.07;;;3.40;;
3941;SDS011;1985;48.592;8.850;2023-06-10T11:54:10;9.65;;;3.28;;
3941;SDS011;1985;48.592;8.850;2023-06-10T11:56:35;10.60;;;3.33;;
3941;SDS011;1985;48.592;8.850;2023-06-10T11:59:02;10.20;;;3.40;;
3941;SDS011;1985;48.592;8.850;2023-06-10T12:01:29;10.40;;;3.50;;
3941;SDS011;1985;48.592;8.850;2023-06-10T12:04:17;10.98;;;3.83;;
3941;SDS011;1985;48.592;8.850;2023-06-10T12:06:47;15.32;;;3.60;;
3941;SDS011;1985;48.592;8.850;2023-06-10T12:11:42;10.95;;;3.30;;
3941;SDS011;1985;48.592;8.850;2023-06-10T12:14:09;9.73;;;2.80;;
3941;SDS011;1985;48.592;8.850;2023-06-10T12:16:35;12.40;;;3.63;;
3941;SDS011;1985;48.592;8.850;2023-06-10T12:19:01;9.63;;;3.00;;
3941;SDS011;1985;48.592;8.850;2023-06-10T12:21:28;9.45;;;3.10;;
3941;SDS011;1985;48.592;8.850;2023-06-10T12:24:04;11.05;;;3.30;;
3941;SDS011;1985;48.592;8.850;2023-06-10T12:26:35;9.75;;;3.55;;
3941;SDS011;1985;48.592;8.850;2023-06-10T12:29:01;9.20;;;3.05;;
3941;SDS011;1985;48.592;8.850;2023-06-10T12:31:56;9.68;;;3.00;;
3941;SDS011;1985;48.592;8.850;2023-06-10T12:37:03;9.73;;;2.72;;
3941;SDS011;1985;48.592;8.850;2023-06-10T12:39:30;8.80;;;2.75;;
3941;SDS011;1985;48.592;8.850;2023-06-10T12:41:57;9.25;;;2.75;;
3941;SDS011;1985;48.592;8.850;2023-06-10T12:44:29;9.40;;;2.97;;
3941;SDS011;1985;48.592;8.850;2023-06-10T12:46:59;10.05;;;3.00;;
3941;SDS011;1985;48.592;8.850;2023-06-10T12:49:26;9.32;;;3.30;;
3941;SDS011;1985;48.592;8.850;2023-06-10T12:51:51;10.00;;;3.10;;
3941;SDS011;1985;48.592;8.850;2023-06-10T12:54:17;9.18;;;2.72;;
3941;SDS011;1985;48.592;8.850;2023-06-10T12:56:43;9.23;;;2.80;;
3941;SDS011;1985;48.592;8.850;2023-06-10T12:59:09;10.93;;;3.30;;
3941;SDS011;1985;48.592;8.850;2023-06-10T13:01:35;9.60;;;2.85;;
3941;SDS011;1985;48.592;8.850;2023-06-10T13:04:02;9.63;;;2.72;;
3941;SDS011;1985;48.592;8.850;2023-06-10T13:06:31;9.45;;;2.50;;
3941;SDS011;1985;48.592;8.850;2023-06-10T13:08:58;9.00;;;2.70;;
3941;SDS011;1985;48.592;8.850;2023-06-10T13:11:24;9.50;;;2.70;;
3941;SDS011;1985;48.592;8.850;2023-06-10T13:13:50;11.20;;;2.60;;
3941;SDS011;1985;48.592;8.850;2023-06-10T13:16:16;10.63;;;3.10;;
3941;SDS011;1985;48.592;8.850;2023-06-10T13:18:42;10.25;;;2.80;;
3941;SDS011;1985;48.592;8.850;2023-06-10T13:21:08;10.23;;;2.72;;
3941;SDS011;1985;48.592;8.850;2023-06-10T13:23:34;11.90;;;3.15;;
3941;SDS011;1985;48.592;8.850;2023-06-10T13:25:59;10.15;;;2.80;;
3941;SDS011;1985;48.592;8.850;2023-06-10T13:28:25;9.77;;;3.03;;
3941;SDS011;1985;48.592;8.850;2023-06-10T13:30:50;9.13;;;3.10;;
3941;SDS011;1985;48.592;8.850;2023-06-10T13:33:16;16.50;;;3.60;;
3941;SDS011;1985;48.592;8.850;2023-06-10T13:35:42;10.63;;;3.10;;
3941;SDS011;1985;48.592;8.850;2023-06-10T13:38:07;11.23;;;3.03;;
3941;SDS011;1985;48.592;8.850;2023-06-10T13:40:33;12.90;;;3.50;;
3941;SDS011;1985;48.592;8.850;2023-06-10T13:42:59;10.80;;;3.10;;
3941;SDS011;1985;48.592;8.850;2023-06-10T13:45:25;11.38;;;3.30;;
3941;SDS011;1985;48.592;8.850;2023-06-10T13:47:51;10.27;;;3.63;;
3941;SDS011;1985;48.592;8.850;2023-06-10T13:50:17;12.27;;;3.60;;
3941;SDS011;1985;48.592;8.850;2023-06-10T13:52:42;11.70;;;3.17;;
3941;SDS011;1985;48.592;8.850;2023-06-10T13:55:08;10.95;;;2.92;;
3941;SDS011;1985;48.592;8.850;2023-06-10T13:57:34;10.00;;;3.35;;
3941;SDS011;1985;48.592;8.850;2023-06-10T14:00:00;9.97;;;3.30;;
3941;SDS011;1985;48.592;8.850;2023-06-10T14:02:25;11.27;;;4.10;;
3941;SDS011;1985;48.592;8.850;2023-06-10T14:04:51;10.10;;;3.10;;
3941;SDS011;1985;48.592;8.850;2023-06-10T14:07:16;9.40;;;3.17;;
3941;SDS011;1985;48.592;8.850;2023-06-10T14:09:42;10.18;;;3.50;;
3941;SDS011;1985;48.592;8.850;2023-06-10T14:12:08;9.55;;;3.30;;
3941;SDS011;1985;48.592;8.850;2023-06-10T14:14:34;10.17;;;3.47;;
3941;SDS011;1985;48.592;8.850;2023-06-10T14:17:01;11.43;;;3.17;;
3941;SDS011;1985;48.592;8.850;2023-06-10T14:19:28;11.88;;;2.95;;
3941;SDS011;1985;48.592;8.850;2023-06-10T14:21:53;10.20;;;3.70;;
3941;SDS011;1985;48.592;8.850;2023-06-10T14:24:20;9.73;;;3.23;;
3941;SDS011;1985;48.592;8.850;2023-06-10T14:26:46;10.00;;;3.20;;
3941;SDS011;1985;48.592;8.850;2023-06-10T14:29:12;9.90;;;3.40;;
3941;SDS011;1985;48.592;8.850;2023-06-10T14:31:43;14.10;;;3.20;;
3941;SDS011;1985;48.592;8.850;2023-06-10T14:34:08;10.55;;;3.10;;
3941;SDS011;1985;48.592;8.850;2023-06-10T14:36:34;9.35;;;3.17;;
3941;SDS011;1985;48.592;8.850;2023-06-10T14:39:00;10.60;;;3.00;;
3941;SDS011;1985;48.592;8.850;2023-06-10T14:41:25;10.05;;;2.90;;
3941;SDS011;1985;48.592;8.850;2023-06-10T14:43:51;10.23;;;3.05;;
3941;SDS011;1985;48.592;8.850;2023-06-10T14:46:17;9.40;;;3.20;;
3941;SDS011;1985;48.592;8.850;2023-06-10T14:48:45;9.70;;;3.30;;
3941;SDS011;1985;48.592;8.850;2023-06-10T14:51:11;9.68;;;3.10;;
3941;SDS011;1985;48.592;8.850;2023-06-10T14:53:37;10.00;;;2.90;;
3941;SDS011;1985;48.592;8.850;2023-06-10T14:56:03;11.23;;;3.30;;
3941;SDS011;1985;48.592;8.850;2023-06-10T14:58:30;11.35;;;3.38;;
3941;SDS011;1985;48.592;8.850;2023-06-10T15:00:55;10.02;;;3.45;;
3941;SDS011;1985;48.592;8.850;2023-06-10T15:03:21;10.50;;;3.35;;
3941;SDS011;1985;48.592;8.850;2023-06-10T15:05:47;9.25;;;3.28;;
3941;SDS011;1985;48.592;8.850;2023-06-10T15:08:12;10.95;;;3.25;;
3941;SDS011;1985;48.592;8.850;2023-06-10T15:10:38;9.57;;;2.80;;
3941;SDS011;1985;48.592;8.850;2023-06-10T15:13:04;9.73;;;3.40;;
3941;SDS011;1985;48.592;8.850;2023-06-10T15:15:30;11.13;;;2.92;;
3941;SDS011;1985;48.592;8.850;2023-06-10T15:17:55;10.70;;;3.30;;
3941;SDS011;1985;48.592;8.850;2023-06-10T15:20:21;11.10;;;3.20;;
3941;SDS011;1985;48.592;8.850;2023-06-10T15:22:46;9.48;;;3.13;;
3941;SDS011;1985;48.592;8.850;2023-06-10T15:25:12;10.20;;;3.10;;
3941;SDS011;1985;48.592;8.850;2023-06-10T15:27:38;9.65;;;3.28;;